Time;durP1;ratioP1;P1;durP2;ratioP2;P2;SDS_P1;SDS_P2;PMS_P1;PMS_P2;Temp;Humidity;BMP_temperature;BMP_pressure;BME280_temperature;BME280_humidity;BME280_pressure;Samples;Min_cycle;Max_cycle;Signal;HPM_P1;HPM_P2
2023/09/04 00:00:42;;;;;;;4.63;2.10;;;;;;;12.69;100.00;93991.47;2521439;23;20183;-87
2023/09/04 00:01:44;;;;;;;3.03;1.90;;;;;;;12.74;100.00;94003.66;2533910;23;20409;-84
2023/09/04 00:02:48;;;;;;;3.45;2.00;;;;;;;12.63;100.00;93992.31;2533613;23;20060;-88
2023/09/04 00:03:49;;;;;;;2.75;2.03;;;;;;;12.64;100.00;93994.59;2533990;23;20006;-83
2023/09/04 00:04:51;;;;;;;5.47;2.05;;;;;;;12.63;100.00;93986.94;2533481;23;20417;-88
2023/09/04 00:05:53;;;;;;;2.17;2.00;;;;;;;12.62;100.00;94002.28;2521993;23;20437;-87
2023/09/04 00:06:54;;;;;;;6.65;2.10;;;;;;;12.67;100.00;93993.03;2533536;23;20009;-86
2023/09/04 00:07:55;;;;;;;2.28;2.08;;;;;;;12.73;100.00;93991.38;2545960;23;20298;-88
2023/09/04 00:08:58;;;;;;;3.95;2.30;;;;;;;12.72;100.00;94000.59;2533572;23;20049;-87
2023/09/04 00:09:59;;;;;;;3.08;1.92;;;;;;;12.75;100.00;93997.13;2546580;23;20021;-84
2023/09/04 00:11:01;;;;;;;3.70;2.17;;;;;;;12.73;100.00;93997.53;2545420;23;20006;-85
2023/09/04 00:12:02;;;;;;;3.38;2.00;;;;;;;12.72;100.00;93995.22;2521435;23;20014;-84
2023/09/04 00:13:03;;;;;;;2.97;1.83;;;;;;;12.70;100.00;93989.53;2533661;23;20696;-88
2023/09/04 00:14:04;;;;;;;4.57;2.05;;;;;;;12.66;100.00;93996.88;2545512;23;20049;-87
2023/09/04 00:15:06;;;;;;;5.45;1.95;;;;;;;12.64;100.00;93985.78;2533415;23;20001;-84
2023/09/04 00:16:09;;;;;;;3.95;1.63;;;;;;;12.60;100.00;93994.66;2534699;23;20002;-83
2023/09/04 00:17:10;;;;;;;6.30;2.13;;;;;;;12.56;100.00;93993.94;2533048;23;20113;-88
2023/09/04 00:18:12;;;;;;;2.00;1.90;;;;;;;12.63;100.00;93998.44;2521502;23;20362;-88
2023/09/04 00:19:13;;;;;;;2.65;2.00;;;;;;;12.63;100.00;93992.31;2533966;23;20006;-85
2023/09/04 00:20:15;;;;;;;3.10;1.92;;;;;;;12.59;100.00;94001.16;2533487;23;20664;-85
2023/09/04 00:21:16;;;;;;;2.53;2.25;;;;;;;12.66;100.00;93988.81;2533564;23;20006;-83
2023/09/04 00:22:17;;;;;;;3.88;2.00;;;;;;;12.64;100.00;93996.50;2545562;23;20006;-84
2023/09/04 00:23:18;;;;;;;2.97;2.20;;;;;;;12.61;100.00;93987.38;2533226;23;22329;-84
2023/09/04 00:24:20;;;;;;;1.98;1.88;;;;;;;12.61;100.00;93987.38;2533234;23;20001;-84
2023/09/04 00:25:21;;;;;;;2.83;1.88;;;;;;;12.66;100.00;93983.47;2521628;23;20002;-83
2023/09/04 00:26:22;;;;;;;3.75;2.65;;;;;;;12.62;100.00;93988.88;2533549;23;20037;-86
2023/09/04 00:27:26;;;;;;;2.88;1.90;;;;;;;12.58;100.00;93983.56;2533635;23;20013;-85
2023/09/04 00:28:27;;;;;;;4.47;2.40;;;;;;;12.51;100.00;93989.06;2521847;23;20006;-85
2023/09/04 00:29:28;;;;;;;3.50;2.10;;;;;;;12.55;100.00;93988.97;2533470;23;20013;-84
2023/09/04 00:30:28;;;;;;;2.40;1.80;;;;;;;12.49;100.00;93987.94;2521273;23;20021;-86
2023/09/04 00:31:29;;;;;;;3.05;1.98;;;;;;;12.49;100.00;93991.38;2533373;23;20001;-83
2023/09/04 00:32:30;;;;;;;2.15;2.05;;;;;;;12.34;100.00;93992.75;2533330;23;20002;-86
2023/09/04 00:33:32;;;;;;;2.33;1.70;;;;;;;12.32;100.00;93993.13;2521379;23;19999;-84
2023/09/04 00:34:33;;;;;;;4.43;2.20;;;;;;;12.33;100.00;93991.22;2533850;23;20006;-86
2023/09/04 00:35:34;;;;;;;3.35;2.10;;;;;;;12.37;100.00;93991.16;2545493;23;20005;-86
2023/09/04 00:36:38;;;;;;;2.33;2.10;;;;;;;12.40;100.00;93990.38;2545201;23;20424;-86
2023/09/04 00:37:41;;;;;;;2.25;2.03;;;;;;;12.42;100.00;93985.34;2522024;23;20003;-83
2023/09/04 00:38:42;;;;;;;2.30;2.10;;;;;;;12.46;100.00;93988.72;2521641;23;20014;-85
2023/09/04 00:39:43;;;;;;;2.60;1.90;;;;;;;12.46;100.00;93986.81;2521619;23;20002;-85
2023/09/04 00:40:44;;;;;;;3.20;2.10;;;;;;;12.44;100.00;93997.19;2545276;23;20143;-85
2023/09/04 00:41:46;;;;;;;2.15;1.90;;;;;;;12.41;100.00;93984.59;2533532;23;20361;-86
2023/09/04 00:42:47;;;;;;;3.70;2.22;;;;;;;12.39;100.00;93991.53;2532982;23;20085;-83
2023/09/04 00:43:48;;;;;;;4.85;2.10;;;;;;;12.40;100.00;93987.69;2533134;23;20014;-84
2023/09/04 00:44:52;;;;;;;2.20;1.70;;;;;;;12.29;100.00;93993.19;2533319;23;20006;-85
2023/09/04 00:45:53;;;;;;;2.70;1.98;;;;;;;12.31;100.00;93990.88;2534338;23;20010;-85
2023/09/04 00:46:54;;;;;;;3.22;1.83;;;;;;;12.33;100.00;93983.94;2533344;23;20453;-83
2023/09/04 00:47:55;;;;;;;2.65;2.08;;;;;;;12.39;100.00;93978.88;2533353;23;20006;-83
2023/09/04 00:48:56;;;;;;;2.45;2.20;;;;;;;12.40;100.00;93982.31;2545340;23;20021;-85
2023/09/04 00:49:58;;;;;;;2.20;1.92;;;;;;;12.45;100.00;93981.84;2545587;23;20012;-82
2023/09/04 00:51:00;;;;;;;2.53;2.30;;;;;;;12.42;100.00;93975.38;2533172;23;20084;-83
2023/09/04 00:52:01;;;;;;;3.03;2.20;;;;;;;12.33;100.00;93975.88;2533945;23;20005;-84
2023/09/04 00:53:06;;;;;;;3.08;2.00;;;;;;;12.40;100.00;93974.28;2545451;23;20432;-83
2023/09/04 00:54:08;;;;;;;2.10;1.98;;;;;;;12.31;100.00;93983.59;2534079;23;20075;-85
2023/09/04 00:55:10;;;;;;;3.47;2.10;;;;;;;12.49;100.00;93971.84;2533662;23;20036;-82
2023/09/04 00:56:13;;;;;;;6.50;1.92;;;;;;;12.36;100.00;93979.69;2533512;23;20006;-85
2023/09/04 00:57:15;;;;;;;2.50;2.30;;;;;;;12.35;100.00;93978.19;2521732;23;20022;-83
2023/09/04 00:58:17;;;;;;;2.30;2.10;;;;;;;12.37;100.00;93969.72;2533644;23;20016;-84
2023/09/04 00:59:18;;;;;;;2.25;2.05;;;;;;;12.29;100.00;93977.88;2521196;23;20013;-84
2023/09/04 01:00:22;;;;;;;3.28;1.92;;;;;;;12.42;100.00;93969.25;2521268;23;20398;-84
2023/09/04 01:01:23;;;;;;;3.70;2.72;;;;;;;12.39;100.00;93975.44;2522222;23;20016;-84
2023/09/04 01:02:25;;;;;;;3.50;2.40;;;;;;;12.36;100.00;93977.00;2520792;23;20006;-83
2023/09/04 01:03:27;;;;;;;2.08;1.88;;;;;;;12.32;100.00;93977.06;2533222;23;20006;-84
2023/09/04 01:04:27;;;;;;;5.07;2.75;;;;;;;12.19;100.00;93973.41;2533498;23;20088;-83
2023/09/04 01:05:31;;;;;;;5.50;2.50;;;;;;;12.08;100.00;93976.25;2533157;23;20357;-85
2023/09/04 01:06:32;;;;;;;2.75;2.20;;;;;;;12.17;100.00;93975.75;2533607;23;20010;-84
2023/09/04 01:07:35;;;;;;;2.58;2.20;;;;;;;12.26;100.00;93977.94;2533274;23;20357;-83
2023/09/04 01:08:42;;;;;;;2.30;2.00;;;;;;;12.14;100.00;93965.81;2533627;23;20101;-84
2023/09/04 01:09:43;;;;;;;6.40;2.50;;;;;;;11.98;100.00;93971.03;2536126;23;20425;-86
2023/09/04 01:11:00;;;;;;;3.72;2.17;;;;;;;12.06;100.00;93980.47;2545235;23;20001;-85
2023/09/04 01:12:10;;;;;;;2.97;2.50;;;;;;;12.02;100.00;93977.84;2548757;23;20065;-81
2023/09/04 01:13:22;;;;;;;4.20;2.20;;;;;;;12.10;100.00;93976.59;2535117;23;20006;-85
2023/09/04 01:14:24;;;;;;;2.78;2.10;;;;;;;12.22;100.00;93977.22;2535256;23;20013;-83
2023/09/04 01:15:26;;;;;;;4.55;2.10;;;;;;;12.18;100.00;93979.19;2521831;23;20029;-86
2023/09/04 01:16:28;;;;;;;4.18;2.10;;;;;;;12.14;100.00;93971.19;2533192;23;20095;-86
2023/09/04 01:17:30;;;;;;;2.38;2.10;;;;;;;12.18;100.00;93973.81;2533359;23;20001;-84
2023/09/04 01:18:31;;;;;;;3.90;2.05;;;;;;;12.19;100.00;93978.00;2533044;23;20002;-83
2023/09/04 01:19:32;;;;;;;4.05;2.17;;;;;;;12.26;100.00;93972.56;2545289;23;20005;-87
2023/09/04 01:20:33;;;;;;;3.30;2.70;;;;;;;12.24;100.00;93966.84;2545206;23;20001;-83
2023/09/04 01:21:37;;;;;;;4.15;2.20;;;;;;;12.16;100.00;93968.09;2533288;23;20410;-84
2023/09/04 01:22:38;;;;;;;2.30;2.10;;;;;;;12.15;100.00;93969.25;2545930;23;20069;-85
2023/09/04 01:23:39;;;;;;;3.83;2.47;;;;;;;12.17;100.00;93964.28;2533330;23;20006;-85
2023/09/04 01:24:40;;;;;;;2.30;2.10;;;;;;;12.18;100.00;93966.53;2521093;23;20010;-85
2023/09/04 01:25:54;;;;;;;3.15;2.00;;;;;;;12.20;100.00;93968.81;2533522;23;20491;-84
2023/09/04 01:27:04;;;;;;;2.45;2.20;;;;;;;12.07;100.00;93968.59;2535560;23;20019;-83
2023/09/04 01:28:40;;;;;;;2.92;1.92;;;;;;;12.06;100.00;93964.41;2535088;23;20002;-84
2023/09/04 01:30:11;;;;;;;4.82;2.10;;;;;;;12.24;100.00;93972.19;2534931;23;20557;-85
2023/09/04 01:31:20;;;;;;;3.65;1.92;;;;;;;12.33;100.00;93959.78;2545199;23;20082;-87
2023/09/04 01:32:36;;;;;;;5.20;2.20;;;;;;;12.17;100.00;93954.31;2559571;23;20914;-85
2023/09/04 01:33:41;;;;;;;3.45;1.98;;;;;;;12.09;100.00;93953.63;2545098;23;20004;-86
2023/09/04 01:34:47;;;;;;;2.75;2.20;;;;;;;12.06;100.00;93957.13;2546193;23;20012;-83
2023/09/04 01:35:49;;;;;;;6.82;2.45;;;;;;;12.08;100.00;93951.38;2545250;23;20064;-86
2023/09/04 01:36:53;;;;;;;2.50;2.17;;;;;;;12.05;100.00;93952.94;2533115;23;20002;-86
2023/09/04 01:37:54;;;;;;;2.33;2.13;;;;;;;12.06;100.00;93959.81;2545804;23;20006;-82
2023/09/04 01:38:56;;;;;;;3.05;2.15;;;;;;;12.02;100.00;93956.41;2533572;23;20006;-84
2023/09/04 01:39:57;;;;;;;3.38;2.53;;;;;;;12.05;100.00;93957.53;2521240;23;20002;-86
2023/09/04 01:40:58;;;;;;;2.30;2.05;;;;;;;11.99;100.00;93954.56;2533369;23;20771;-85
2023/09/04 01:41:59;;;;;;;3.00;2.17;;;;;;;11.87;100.00;93955.09;2533071;23;20001;-85
2023/09/04 01:43:00;;;;;;;2.65;2.17;;;;;;;11.79;100.00;93959.00;2532988;23;20044;-83
2023/09/04 01:44:01;;;;;;;4.40;2.20;;;;;;;11.77;100.00;93959.41;2533093;23;20010;-86
2023/09/04 01:45:02;;;;;;;3.88;2.25;;;;;;;11.87;100.00;93952.41;2533195;23;20010;-85
2023/09/04 01:46:04;;;;;;;3.88;2.22;;;;;;;11.94;100.00;93955.00;2545192;23;20092;-85
2023/09/04 01:47:05;;;;;;;4.00;2.10;;;;;;;11.91;100.00;93955.81;2533324;23;20006;-85
2023/09/04 01:48:06;;;;;;;5.55;2.20;;;;;;;12.03;100.00;93957.19;2520989;23;20054;-82
2023/09/04 01:49:07;;;;;;;2.33;2.10;;;;;;;11.97;100.00;93956.88;2521182;23;20006;-83
2023/09/04 01:50:25;;;;;;;3.10;2.10;;;;;;;11.98;100.00;93954.94;2533132;23;20056;-85
2023/09/04 01:51:26;;;;;;;3.15;2.08;;;;;;;12.01;100.00;93960.25;2561178;23;20080;-84
2023/09/04 01:52:28;;;;;;;3.25;2.15;;;;;;;11.94;100.00;93960.38;2544986;23;20456;-85
2023/09/04 01:53:29;;;;;;;3.30;2.03;;;;;;;12.03;100.00;93954.50;2545646;23;20033;-85
2023/09/04 01:54:30;;;;;;;2.42;1.90;;;;;;;11.97;100.00;93956.88;2532950;23;20311;-84
2023/09/04 01:55:31;;;;;;;2.63;2.10;;;;;;;11.82;100.00;93958.19;2533105;23;20086;-86
2023/09/04 01:56:32;;;;;;;2.28;2.08;;;;;;;11.85;100.00;93952.03;2532721;23;20397;-83
2023/09/04 01:57:33;;;;;;;3.00;1.95;;;;;;;11.86;100.00;93956.25;2550424;23;20057;-83
2023/09/04 01:58:35;;;;;;;2.42;2.22;;;;;;;11.78;100.00;93954.81;2545172;23;20012;-82
2023/09/04 01:59:35;;;;;;;2.40;2.20;;;;;;;11.79;100.00;93956.31;2557402;23;20001;-84
2023/09/04 02:00:37;;;;;;;4.55;2.35;;;;;;;11.81;100.00;93949.41;2545380;23;20005;-84
2023/09/04 02:01:38;;;;;;;2.75;2.33;;;;;;;11.74;100.00;93949.50;2533451;23;20469;-83
2023/09/04 02:02:39;;;;;;;2.35;2.15;;;;;;;11.71;100.00;93947.59;2545501;23;20032;-85
2023/09/04 02:03:44;;;;;;;2.83;2.10;;;;;;;11.69;100.00;93946.50;2545369;23;20152;-82
2023/09/04 02:04:45;;;;;;;3.15;2.53;;;;;;;11.81;100.00;93940.63;2558365;23;20369;-82
2023/09/04 02:05:46;;;;;;;2.88;2.53;;;;;;;11.86;100.00;93945.56;2545362;23;20100;-85
2023/09/04 02:06:47;;;;;;;2.67;2.35;;;;;;;11.84;100.00;93942.50;2557557;23;20080;-83
2023/09/04 02:07:49;;;;;;;2.45;2.25;;;;;;;11.83;100.00;93951.69;2557665;23;20389;-85
2023/09/04 02:08:50;;;;;;;2.88;2.40;;;;;;;11.84;100.00;93948.59;2533459;23;20012;-84
2023/09/04 02:09:51;;;;;;;3.42;2.40;;;;;;;11.78;100.00;93944.84;2545051;23;20009;-84
2023/09/04 02:10:53;;;;;;;3.10;2.80;;;;;;;11.64;100.00;93949.63;2533238;23;20017;-84
2023/09/04 02:11:54;;;;;;;2.42;2.22;;;;;;;11.70;100.00;93948.00;2533578;23;20006;-84
2023/09/04 02:12:56;;;;;;;5.35;2.13;;;;;;;11.72;100.00;93945.69;2545150;23;20025;-83
2023/09/04 02:13:57;;;;;;;6.28;2.70;;;;;;;11.68;100.00;93950.34;2545085;23;20008;-85
2023/09/04 02:14:57;;;;;;;4.70;2.33;;;;;;;11.60;100.00;93939.72;2545118;23;20005;-84
2023/09/04 02:15:58;;;;;;;2.38;2.17;;;;;;;11.54;100.00;93943.22;2532886;23;20458;-84
2023/09/04 02:16:59;;;;;;;3.92;2.35;;;;;;;11.53;100.00;93949.75;2544930;23;20021;-84
2023/09/04 02:18:02;;;;;;;2.70;2.50;;;;;;;11.48;100.00;93942.91;2544992;23;20397;-82
2023/09/04 02:19:03;;;;;;;4.53;2.70;;;;;;;11.49;100.00;93941.75;2545391;23;20035;-84
2023/09/04 02:20:04;;;;;;;4.57;2.45;;;;;;;11.55;100.00;93950.88;2532837;23;20078;-84
2023/09/04 14:18:21;;;;;;;1.70;1.60;;;;;;;26.32;49.43;93660.50;2585456;22;20020;-89
2023/09/04 14:19:23;;;;;;;2.85;1.70;;;;;;;26.36;47.16;93667.22;2558537;23;20096;-90
2023/09/04 14:20:25;;;;;;;2.30;1.80;;;;;;;26.54;46.31;93659.69;2533936;23;20458;-90
2023/09/04 14:21:32;;;;;;;2.47;1.77;;;;;;;26.71;46.42;93656.84;2558495;23;19997;-91
2023/09/04 14:22:33;;;;;;;2.00;1.80;;;;;;;26.55;51.14;93656.41;2547215;23;20438;-89
2023/09/04 14:23:37;;;;;;;1.80;1.70;;;;;;;26.57;48.67;93656.69;2533606;23;20037;-92
2023/09/04 14:24:41;;;;;;;4.53;1.52;;;;;;;26.44;49.18;93651.00;2534760;23;20010;-91
2023/09/04 14:25:49;;;;;;;1.60;1.50;;;;;;;26.13;49.95;93654.09;2547125;23;20009;-92
2023/09/04 14:26:50;;;;;;;2.00;1.58;;;;;;;26.36;45.33;93656.25;2547055;23;20056;-92
2023/09/04 14:27:51;;;;;;;4.40;1.70;;;;;;;26.51;46.83;93655.94;2533546;23;20037;-88
2023/09/04 14:28:55;;;;;;;3.08;1.83;;;;;;;26.75;47.14;93652.59;2545748;23;20017;-90
2023/09/04 14:29:59;;;;;;;3.45;1.60;;;;;;;26.51;47.60;93653.19;2558709;23;20020;-88
2023/09/04 14:31:20;;;;;;;5.57;2.67;;;;;;;26.63;47.65;93655.91;2546549;23;20084;-89
2023/09/04 14:32:24;;;;;;;1.65;1.55;;;;;;;26.66;48.29;93650.16;2541850;23;20005;-89
2023/09/04 14:33:28;;;;;;;4.05;1.58;;;;;;;26.70;47.00;93652.63;2534800;23;20013;-90
2023/09/04 14:34:32;;;;;;;2.72;1.33;;;;;;;26.60;46.19;93652.94;2534795;23;19994;-91
2023/09/04 14:35:36;;;;;;;1.85;1.70;;;;;;;26.33;49.39;93648.28;2546651;23;20010;-90
2023/09/04 14:36:39;;;;;;;2.95;1.60;;;;;;;26.24;49.21;93652.06;2546287;23;20009;-89
2023/09/04 14:37:49;;;;;;;;;;;;;;;25.93;51.93;93652.41;2550125;23;20004;-89
2023/09/04 14:38:51;;;;;;;5.90;1.60;;;;;;;26.07;53.96;93654.84;2546315;23;20272;-90
2023/09/04 14:40:00;;;;;;;3.17;1.40;;;;;;;25.91;49.79;93655.66;2546040;23;20024;-89
2023/09/04 14:41:31;;;;;;;1.88;1.30;;;;;;;26.15;50.08;93654.34;2547637;23;20413;-90
2023/09/04 14:42:34;;;;;;;2.25;1.52;;;;;;;26.15;50.43;93652.34;2552099;23;20484;-90
2023/09/04 14:43:35;;;;;;;2.55;1.38;;;;;;;26.20;51.04;93645.34;2534317;23;20010;-89
2023/09/04 14:44:45;;;;;;;1.70;1.60;;;;;;;26.32;50.21;93649.53;2533403;23;20040;-91
2023/09/04 14:45:45;;;;;;;;;;;;;;;26.14;49.07;93650.13;2538042;23;20006;-90
2023/09/04 14:46:49;;;;;;;3.75;1.73;;;;;;;26.02;51.94;93649.41;2546093;23;19946;-91
2023/09/04 14:47:53;;;;;;;2.53;1.30;;;;;;;25.94;50.45;93656.63;2535539;23;20062;-91
2023/09/04 14:48:57;;;;;;;2.40;1.35;;;;;;;26.04;49.42;93647.66;2546514;23;20005;-90
2023/09/04 14:50:01;;;;;;;4.57;1.98;;;;;;;26.44;47.07;93653.00;2534916;23;20010;-89
2023/09/04 14:51:05;;;;;;;17.17;3.00;;;;;;;26.30;49.82;93652.06;2546348;23;20049;-90
2023/09/04 14:52:08;;;;;;;8.00;2.95;;;;;;;26.26;51.01;93644.09;2547260;23;20409;-89
2023/09/04 14:53:12;;;;;;;4.38;1.83;;;;;;;26.47;47.67;93652.75;2535072;23;20037;-90
2023/09/04 14:54:18;;;;;;;5.00;1.40;;;;;;;26.43;50.62;93643.25;2546163;23;20048;-89
2023/09/04 14:55:20;;;;;;;36.30;8.38;;;;;;;26.36;52.07;93650.03;2535653;23;20009;-89
2023/09/04 14:56:27;;;;;;;15.65;6.15;;;;;;;26.23;51.35;93647.09;2533854;23;20121;-89
2023/09/04 14:57:28;;;;;;;6.68;1.77;;;;;;;26.46;48.61;93648.50;2548633;23;20005;-88
2023/09/04 14:58:51;;;;;;;9.88;1.98;;;;;;;26.40;53.23;93642.28;2545977;23;20472;-90
2023/09/04 14:59:56;;;;;;;1.60;1.50;;;;;;;26.26;50.85;93644.09;2557937;23;20005;-91
2023/09/04 15:01:14;;;;;;;4.35;1.70;;;;;;;26.32;51.37;93642.06;2560981;23;20004;-90
2023/09/04 15:02:15;;;;;;;5.22;1.40;;;;;;;26.32;54.85;93638.56;2558298;23;19996;-91
2023/09/04 15:03:20;;;;;;;2.70;1.60;;;;;;;26.23;52.89;93645.09;2558351;23;20001;-91
2023/09/04 15:04:29;;;;;;;4.07;1.60;;;;;;;26.11;52.63;93646.38;2535608;23;20006;-89
2023/09/04 15:05:30;;;;;;;4.60;1.48;;;;;;;26.05;52.45;93635.44;2537344;23;20077;-92
2023/09/04 15:06:31;;;;;;;3.67;1.40;;;;;;;26.01;51.79;93637.69;2545862;23;20053;-92
2023/09/04 15:07:35;;;;;;;3.53;1.40;;;;;;;26.33;49.47;93635.31;2533805;23;19998;-91
2023/09/04 15:08:40;;;;;;;4.70;1.73;;;;;;;26.22;52.24;93643.59;2546777;23;20025;-87
2023/09/04 15:09:43;;;;;;;3.17;1.60;;;;;;;26.13;54.06;93637.66;2535608;23;20373;-91
2023/09/04 15:10:47;;;;;;;2.35;1.65;;;;;;;26.15;54.98;93637.91;2535994;23;20050;-89
2023/09/04 15:11:51;;;;;;;1.95;1.35;;;;;;;26.07;57.00;93637.66;2548706;23;20005;-92
2023/09/04 15:12:55;;;;;;;2.15;1.27;;;;;;;26.58;47.69;93638.97;2560264;23;20008;-89
2023/09/04 15:13:59;;;;;;;2.67;1.35;;;;;;;26.76;48.94;93636.88;2536843;23;19997;-90
2023/09/04 15:15:04;;;;;;;1.55;1.30;;;;;;;26.47;50.90;93644.53;2536382;23;20125;-88
2023/09/04 15:16:09;;;;;;;2.45;1.20;;;;;;;26.70;48.38;93633.44;2547052;23;20042;-90
2023/09/04 15:17:13;;;;;;;2.03;1.25;;;;;;;26.60;49.23;93644.69;2535936;23;20013;-88
2023/09/04 15:18:17;;;;;;;2.92;1.15;;;;;;;26.49;52.89;93642.00;2546737;23;20014;-89
2023/09/04 15:20:30;;;;;;;5.00;1.30;;;;;;;26.52;50.14;93641.00;2547235;23;20001;-89
2023/09/04 15:21:27;;;;;;;1.58;1.08;;;;;;;26.55;51.82;93644.72;2569152;23;20450;-90
2023/09/04 15:22:32;;;;;;;1.17;1.10;;;;;;;26.39;49.75;93638.06;2559460;23;20086;-88
2023/09/04 15:23:36;;;;;;;3.00;1.35;;;;;;;26.25;53.32;93645.34;2559156;23;20005;-89
2023/09/04 15:24:41;;;;;;;4.38;1.25;;;;;;;26.43;53.04;93644.00;2559755;23;20084;-89
2023/09/04 15:25:45;;;;;;;3.22;1.38;;;;;;;26.75;49.81;93649.84;2534634;23;20010;-90
2023/09/04 15:26:49;;;;;;;2.88;1.30;;;;;;;26.42;51.64;93641.75;2535426;23;20006;-90
2023/09/04 15:27:53;;;;;;;2.60;1.20;;;;;;;26.44;52.88;93645.53;2535613;23;20006;-89
2023/09/04 15:28:57;;;;;;;2.08;1.30;;;;;;;26.44;51.26;93644.78;2547108;23;20029;-88
2023/09/04 15:30:01;;;;;;;5.50;1.30;;;;;;;26.64;50.10;93641.66;2535539;23;20006;-91
2023/09/04 15:31:05;;;;;;;1.98;1.20;;;;;;;26.34;49.68;93638.78;2536055;23;20089;-89
2023/09/04 15:32:09;;;;;;;2.00;0.98;;;;;;;26.52;49.80;93637.53;2548087;23;20429;-90
2023/09/04 15:33:13;;;;;;;3.30;1.70;;;;;;;26.25;52.59;93645.34;2536408;23;20034;-89
2023/09/04 15:34:17;;;;;;;1.25;1.13;;;;;;;26.14;53.14;93639.16;2548237;23;19997;-91
2023/09/04 15:35:20;;;;;;;2.80;1.20;;;;;;;26.39;50.70;93643.53;2547301;23;20012;-88
2023/09/04 15:36:28;;;;;;;7.88;1.35;;;;;;;26.48;50.36;93639.78;2538275;23;19998;-92
2023/09/04 15:37:29;;;;;;;4.10;1.30;;;;;;;26.28;53.35;93641.56;2558816;23;20113;-89
2023/09/04 15:38:35;;;;;;;1.60;1.00;;;;;;;26.37;49.56;93635.78;2546486;23;20008;-92
2023/09/04 15:39:36;;;;;;;1.75;1.10;;;;;;;26.34;49.92;93636.81;2558911;23;20008;-92
2023/09/04 15:40:41;;;;;;;3.20;1.50;;;;;;;26.25;52.15;93642.59;2534397;23;20038;-87
2023/09/04 15:41:44;;;;;;;5.45;1.50;;;;;;;26.00;51.16;93638.94;2548156;23;20009;-88
2023/09/04 15:42:49;;;;;;;1.38;1.27;;;;;;;25.75;51.68;93637.97;2547143;23;20001;-89
2023/09/04 15:43:52;;;;;;;2.53;1.20;;;;;;;25.88;51.51;93642.97;2548025;23;20509;-88
2023/09/04 15:44:56;;;;;;;1.33;0.90;;;;;;;25.96;50.25;93638.47;2546984;23;20365;-88
2023/09/04 15:46:01;;;;;;;2.95;1.10;;;;;;;25.91;50.74;93631.00;2547044;23;20658;-88
2023/09/04 15:47:06;;;;;;;1.25;1.10;;;;;;;25.77;50.67;93637.50;2536289;23;20010;-89
2023/09/04 15:48:07;;;;;;;2.35;1.10;;;;;;;25.77;53.79;93634.75;2536073;23;20056;-90
2023/09/04 15:49:17;;;;;;;2.45;1.10;;;;;;;25.69;58.08;93633.78;2546825;23;20006;-93
2023/09/04 15:50:19;;;;;;;2.90;0.95;;;;;;;25.72;54.10;93635.50;2538344;23;20027;-90
2023/09/04 15:51:21;;;;;;;1.30;1.20;;;;;;;25.65;54.38;93639.50;2546969;23;20013;-91
2023/09/04 15:52:25;;;;;;;2.78;1.10;;;;;;;25.57;56.55;93639.25;2535385;23;20037;-92
2023/09/04 15:53:32;;;;;;;0.85;0.85;;;;;;;25.63;53.76;93637.25;2534642;23;20064;-91
2023/09/04 15:54:33;;;;;;;9.48;1.10;;;;;;;25.57;54.48;93635.78;2545808;23;20001;-90
2023/09/04 15:55:36;;;;;;;0.90;0.90;;;;;;;25.68;53.62;93635.78;2532841;23;20009;-90
2023/09/04 15:56:40;;;;;;;3.00;1.00;;;;;;;25.70;52.92;93635.25;2546542;23;20109;-88
2023/09/04 15:57:44;;;;;;;1.52;1.00;;;;;;;25.85;53.12;93633.75;2558164;23;20009;-90
2023/09/04 15:58:48;;;;;;;0.98;0.98;;;;;;;25.62;54.19;93627.56;2533054;23;20005;-90
2023/09/04 15:59:52;;;;;;;1.00;0.90;;;;;;;25.77;58.45;93629.28;2534113;23;20009;-89
2023/09/04 16:00:56;;;;;;;1.52;0.95;;;;;;;25.55;54.70;93625.34;2535392;23;20006;-88
2023/09/04 16:02:01;;;;;;;1.05;0.70;;;;;;;25.48;54.30;93631.31;2547354;23;20006;-90
2023/09/04 16:03:04;;;;;;;6.57;1.00;;;;;;;25.42;55.53;93627.84;2546380;23;20012;-89
2023/09/04 16:04:08;;;;;;;1.10;1.00;;;;;;;25.43;55.86;93629.34;2534632;23;20009;-88
2023/09/04 16:05:12;;;;;;;2.53;1.00;;;;;;;25.39;52.71;93628.09;2534418;23;20049;-89
2023/09/04 16:06:16;;;;;;;1.90;1.10;;;;;;;25.49;52.07;93632.81;2546578;23;20092;-91
2023/09/04 16:07:20;;;;;;;2.13;0.95;;;;;;;25.34;58.24;93630.34;2547496;23;20010;-90
2023/09/04 16:08:24;;;;;;;1.98;1.20;;;;;;;25.34;56.97;93629.59;2558216;23;20362;-89
2023/09/04 16:09:28;;;;;;;2.13;1.23;;;;;;;25.26;62.01;93631.34;2547104;23;20005;-93
2023/09/04 16:10:31;;;;;;;16.15;3.88;;;;;;;25.33;59.87;93626.13;2535277;23;19997;-88
2023/09/04 16:11:35;;;;;;;6.07;1.60;;;;;;;25.47;58.79;93631.81;2534929;23;20006;-90
2023/09/04 16:12:41;;;;;;;2.78;1.35;;;;;;;25.47;60.41;93620.88;2535787;23;20362;-89
2023/09/04 16:14:15;;;;;;;3.65;1.38;;;;;;;25.39;58.67;93628.84;2547017;23;20307;-90
2023/09/04 16:15:25;;;;;;;1.58;1.30;;;;;;;25.63;55.38;93620.81;2547276;23;20088;-90
2023/09/04 16:16:25;;;;;;;;;;;;;;;25.46;56.64;93628.34;2537877;23;20017;-93
2023/09/04 16:17:29;;;;;;;4.95;1.52;;;;;;;25.49;62.83;93626.59;2533936;23;20313;-88
2023/09/04 16:18:33;;;;;;;1.77;1.60;;;;;;;25.37;59.51;93625.84;2535379;23;20026;-93
2023/09/04 16:19:39;;;;;;;4.05;1.40;;;;;;;25.61;55.84;93617.84;2547038;23;20325;-91
2023/09/04 16:20:44;;;;;;;4.47;1.80;;;;;;;25.44;60.32;93619.88;2547499;23;20372;-91
2023/09/04 16:21:49;;;;;;;5.50;1.67;;;;;;;25.28;57.97;93626.09;2535572;23;20093;-89
2023/09/04 16:22:50;;;;;;;1.85;1.58;;;;;;;25.13;61.03;93626.38;2534982;23;20006;-90
2023/09/04 16:23:51;;;;;;;7.53;1.98;;;;;;;25.04;65.12;93619.13;2533496;23;20064;-88
2023/09/04 16:25:00;;;;;;;4.20;1.55;;;;;;;24.82;59.59;93619.13;2546064;23;20485;-87
2023/09/04 16:26:04;;;;;;;;;;;;;;;25.01;58.12;93614.63;2560655;23;20072;-88
2023/09/04 16:27:06;;;;;;;9.70;1.67;;;;;;;25.01;62.55;93624.84;2546355;23;20390;-90
2023/09/04 16:28:07;;;;;;;2.50;1.42;;;;;;;24.76;61.91;93619.13;2534348;23;20385;-90
2023/09/04 16:29:17;;;;;;;3.45;1.42;;;;;;;24.93;62.94;93618.38;2534070;23;20006;-90
2023/09/04 16:30:18;;;;;;;2.78;1.50;;;;;;;25.02;64.37;93607.19;2537632;23;20129;-89
2023/09/04 16:31:20;;;;;;;3.83;1.48;;;;;;;24.94;62.08;93614.41;2534762;23;20010;-89
2023/09/04 16:32:24;;;;;;;1.70;1.60;;;;;;;24.92;60.55;93622.34;2545629;23;20067;-88
2023/09/04 16:33:28;;;;;;;3.08;1.77;;;;;;;24.92;62.12;93614.88;2535064;23;20009;-89
2023/09/04 16:34:38;;;;;;;4.22;1.35;;;;;;;24.80;64.14;93614.16;2535146;23;20061;-90
2023/09/04 16:35:41;;;;;;;3.95;1.92;;;;;;;24.91;63.13;93610.66;2537597;23;20057;-86
2023/09/04 16:36:43;;;;;;;3.17;1.50;;;;;;;24.81;64.71;93615.63;2546858;23;20036;-88
2023/09/04 16:37:44;;;;;;;4.28;1.48;;;;;;;24.85;62.43;93618.13;2534242;23;20065;-91
2023/09/04 16:38:47;;;;;;;3.78;1.50;;;;;;;24.75;72.57;93619.59;2545828;23;20057;-91
2023/09/04 16:39:51;;;;;;;3.00;1.50;;;;;;;24.65;70.79;93613.63;2547186;23;20001;-88
2023/09/04 16:40:55;;;;;;;6.90;1.77;;;;;;;24.76;69.84;93610.91;2547183;23;20044;-92
2023/09/04 16:41:59;;;;;;;1.75;1.45;;;;;;;24.64;75.97;93616.88;2546793;23;20005;-89
2023/09/04 16:43:03;;;;;;;37.03;8.27;;;;;;;24.48;76.98;93621.03;2535122;23;19998;-89
2023/09/04 16:44:07;;;;;;;85.95;20.95;;;;;;;24.65;75.40;93621.09;2534673;23;20092;-88
2023/09/04 16:45:12;;;;;;;4.22;2.17;;;;;;;24.50;68.56;93613.84;2535331;23;20008;-89
2023/09/04 16:46:15;;;;;;;6.18;1.95;;;;;;;24.46;77.21;93616.06;2547210;23;20028;-89
2023/09/04 16:47:19;;;;;;;3.30;1.60;;;;;;;24.29;76.11;93626.19;2546888;23;20385;-92
2023/09/04 16:48:24;;;;;;;4.28;1.88;;;;;;;24.02;84.21;93619.38;2535274;23;20002;-90
2023/09/04 16:49:27;;;;;;;4.40;2.00;;;;;;;24.20;78.75;93624.41;2535842;23;20327;-88
2023/09/04 16:50:32;;;;;;;2.70;1.58;;;;;;;24.13;78.37;93622.91;2547779;23;20373;-89
2023/09/04 16:51:36;;;;;;;3.25;1.67;;;;;;;24.16;80.73;93618.44;2547568;23;20048;-88
2023/09/04 16:52:40;;;;;;;1.42;1.30;;;;;;;23.94;78.70;93624.56;2535998;23;20417;-91
2023/09/04 16:53:44;;;;;;;3.45;1.45;;;;;;;23.83;83.31;93622.50;2535055;23;20441;-88
2023/09/04 16:54:48;;;;;;;2.35;1.65;;;;;;;23.85;78.60;93627.50;2548331;23;20001;-87
2023/09/04 16:55:52;;;;;;;1.95;1.75;;;;;;;23.76;78.83;93619.53;2547361;23;20460;-89
2023/09/04 16:56:56;;;;;;;1.83;1.58;;;;;;;23.69;78.04;93619.97;2547077;23;20010;-88